Time;durP1;ratioP1;P1;durP2;ratioP2;P2;SDS_P1;SDS_P2;PMS_P1;PMS_P2;Temp;Humidity;BMP_temperature;BMP_pressure;BME280_temperature;BME280_humidity;BME280_pressure;Samples;Min_cycle;Max_cycle;Signal;HPM_P1;HPM_P2
2024/02/21 00:01:08;;;;;;;31.23;4.65;;;;;;;7.74;100.00;102224.91;5052790;28;20360;-81
2024/02/21 00:03:33;;;;;;;23.55;4.40;;;;;;;7.76;100.00;102214.22;5054633;28;20414;-83
2024/02/21 00:05:59;;;;;;;17.13;3.05;;;;;;;7.72;100.00;102218.00;5053367;28;20029;-82
2024/02/21 00:08:24;;;;;;;29.48;4.22;;;;;;;7.75;100.00;102218.66;5054064;28;20502;-83
2024/02/21 00:10:49;;;;;;;17.92;3.50;;;;;;;7.75;100.00;102218.66;5036829;28;20482;-81
2024/02/21 00:13:15;;;;;;;17.35;3.33;;;;;;;7.76;100.00;102217.72;5054588;28;20105;-81
2024/02/21 00:15:40;;;;;;;23.30;3.70;;;;;;;7.75;100.00;102199.28;5052544;28;20041;-85
2024/02/21 00:18:06;;;;;;;26.50;4.13;;;;;;;7.77;100.00;102208.81;5053702;28;20167;-82
2024/02/21 00:20:31;;;;;;;23.50;3.17;;;;;;;7.76;100.00;102204.47;5054259;28;20033;-84
2024/02/21 00:22:56;;;;;;;28.70;4.00;;;;;;;7.76;100.00;102211.56;5052955;28;20033;-84
2024/02/21 00:25:22;;;;;;;19.35;3.42;;;;;;;7.75;100.00;102226.63;5020102;28;20352;-84
2024/02/21 00:27:47;;;;;;;25.58;4.47;;;;;;;7.76;100.00;102230.97;5052355;28;20039;-82
2024/02/21 00:30:13;;;;;;;19.65;3.58;;;;;;;7.77;100.00;102229.19;5053298;28;20108;-81
2024/02/21 00:32:38;;;;;;;23.15;3.63;;;;;;;7.81;100.00;102229.84;5052354;28;20475;-82
2024/02/21 00:35:04;;;;;;;28.95;3.63;;;;;;;7.83;100.00;102220.03;5052427;28;20336;-82
2024/02/21 00:37:29;;;;;;;25.10;3.55;;;;;;;7.82;100.00;102220.97;5053163;28;20048;-83
2024/02/21 00:39:57;;;;;;;24.27;3.80;;;;;;;7.80;100.00;102228.16;5053539;28;20037;-82
2024/02/21 00:42:22;;;;;;;21.90;3.72;;;;;;;7.80;100.00;102221.06;5053038;28;20037;-82
2024/02/21 00:44:48;;;;;;;27.77;3.35;;;;;;;7.84;100.00;102216.44;5053630;28;20044;-82
2024/02/21 00:47:13;;;;;;;24.42;3.55;;;;;;;7.84;100.00;102213.78;5052101;28;20025;-82
2024/02/21 00:49:38;;;;;;;28.60;4.57;;;;;;;7.83;100.00;102207.63;5052052;28;20029;-82
2024/02/21 00:52:04;;;;;;;22.15;3.35;;;;;;;7.82;100.00;102199.75;5052381;28;20542;-82
2024/02/21 00:54:29;;;;;;;27.77;3.47;;;;;;;7.80;100.00;102199.84;5053106;28;20082;-89
2024/02/21 00:56:55;;;;;;;29.63;4.35;;;;;;;7.79;100.00;102194.63;5051966;28;20143;-84
2024/02/21 00:59:20;;;;;;;21.58;3.35;;;;;;;7.80;100.00;102201.66;5051793;28;20417;-83
2024/02/21 01:01:45;;;;;;;21.02;3.55;;;;;;;7.76;100.00;102190.38;5052865;28;20119;-82
2024/02/21 01:04:11;;;;;;;25.75;3.92;;;;;;;7.79;100.00;102189.34;5053375;28;20033;-83
2024/02/21 01:06:36;;;;;;;22.88;3.45;;;;;;;7.77;100.00;102184.13;5035371;28;20024;-82
2024/02/21 01:09:02;;;;;;;26.73;3.80;;;;;;;7.77;100.00;102186.78;5052767;28;20130;-82
2024/02/21 01:11:27;;;;;;;26.02;3.35;;;;;;;7.73;100.00;102183.47;5051601;28;20032;-84
2024/02/21 01:13:53;;;;;;;21.50;4.03;;;;;;;7.75;100.00;102184.22;5050984;28;20477;-82
2024/02/21 01:16:18;;;;;;;25.05;3.22;;;;;;;7.70;100.00;102175.69;5051342;28;20132;-82
2024/02/21 01:18:44;;;;;;;27.30;3.40;;;;;;;7.70;100.00;102175.69;5051569;28;20394;-82
2024/02/21 01:21:10;;;;;;;20.55;4.07;;;;;;;7.69;100.00;102173.97;5052568;28;20055;-82
2024/02/21 01:23:36;;;;;;;21.15;4.22;;;;;;;7.67;100.00;102170.53;5052149;28;20052;-81
2024/02/21 01:26:03;;;;;;;27.73;3.83;;;;;;;7.66;100.00;102171.50;5051102;28;20506;-82
2024/02/21 01:28:28;;;;;;;31.25;4.32;;;;;;;7.68;100.00;102172.25;5052240;28;20029;-82
2024/02/21 01:30:54;;;;;;;21.40;3.90;;;;;;;7.68;100.00;102166.13;5051373;28;20394;-82
2024/02/21 01:33:19;;;;;;;28.08;3.42;;;;;;;7.71;100.00;102161.47;5051382;28;20037;-82
2024/02/21 01:35:48;;;;;;;27.00;3.38;;;;;;;7.76;100.00;102162.09;5050916;28;20103;-82
2024/02/21 01:38:14;;;;;;;15.68;3.55;;;;;;;7.79;100.00;102155.75;5052086;28;20144;-82
2024/02/21 01:40:39;;;;;;;28.88;3.92;;;;;;;7.81;100.00;102155.66;5050952;28;20039;-81
2024/02/21 01:43:15;;;;;;;19.52;3.45;;;;;;;7.87;100.00;102155.31;5052011;28;20427;-82
2024/02/21 01:45:41;;;;;;;22.60;3.63;;;;;;;7.87;100.00;102165.91;5052574;28;20025;-82
2024/02/21 01:48:09;;;;;;;20.00;3.25;;;;;;;7.84;100.00;102155.50;5052435;28;20079;-82
2024/02/21 01:50:36;;;;;;;18.83;3.45;;;;;;;7.83;100.00;102154.63;5050460;28;20032;-83
2024/02/21 01:53:02;;;;;;;27.30;3.55;;;;;;;7.81;100.00;102145.06;5051960;28;20051;-83
2024/02/21 01:55:27;;;;;;;23.05;4.45;;;;;;;7.80;100.00;102138.91;5050462;28;20041;-83
2024/02/21 01:57:53;;;;;;;26.00;3.83;;;;;;;7.81;100.00;102131.81;5051617;28;20463;-83
2024/02/21 02:00:19;;;;;;;30.75;3.63;;;;;;;7.81;100.00;102131.81;5051870;28;20033;-83
2024/02/21 02:02:45;;;;;;;19.52;3.20;;;;;;;7.81;100.00;102137.09;5051203;28;20062;-83
2024/02/21 02:05:11;;;;;;;20.77;3.70;;;;;;;7.80;100.00;102133.59;5051359;28;20154;-83
2024/02/21 02:07:39;;;;;;;27.27;4.18;;;;;;;7.81;100.00;102123.84;5052285;28;20075;-83
2024/02/21 02:10:08;;;;;;;27.40;4.93;;;;;;;7.83;100.00;102136.06;5034651;28;20411;-83
2024/02/21 02:12:33;;;;;;;24.27;4.22;;;;;;;7.82;100.00;102133.53;5052055;28;20438;-83
2024/02/21 02:15:08;;;;;;;19.55;3.90;;;;;;;7.83;100.00;102117.53;5051613;28;20025;-83
2024/02/21 02:17:34;;;;;;;24.08;3.50;;;;;;;7.86;100.00;102121.81;5051881;28;20037;-83
2024/02/21 02:19:59;;;;;;;33.55;4.22;;;;;;;7.84;100.00;102116.59;5050236;28;20140;-83
2024/02/21 02:22:29;;;;;;;25.98;3.95;;;;;;;7.79;100.00;102115.16;5050256;28;20025;-83
2024/02/21 02:24:55;;;;;;;25.35;3.75;;;;;;;7.81;100.00;102100.88;5051351;28;20060;-82
2024/02/21 02:27:22;;;;;;;18.48;3.08;;;;;;;7.81;100.00;102097.34;5051224;28;20119;-82
2024/02/21 02:29:48;;;;;;;24.02;3.65;;;;;;;7.77;100.00;102108.13;5049927;28;20033;-83
2024/02/21 02:32:13;;;;;;;24.30;3.50;;;;;;;7.77;100.00;102104.66;5051838;28;20043;-83
2024/02/21 02:34:39;;;;;;;14.02;3.13;;;;;;;7.80;100.00;102101.81;5051444;28;20463;-82
2024/02/21 02:37:04;;;;;;;22.30;3.22;;;;;;;7.83;100.00;102103.44;5033526;28;20112;-82
2024/02/21 02:39:30;;;;;;;18.50;3.08;;;;;;;7.82;100.00;102099.06;5051514;28;20029;-85
2024/02/21 02:41:55;;;;;;;19.38;3.55;;;;;;;7.82;100.00;102099.91;5052740;28;20025;-83
2024/02/21 02:44:20;;;;;;;15.98;3.00;;;;;;;7.86;100.00;102097.94;5054029;28;20078;-83
2024/02/21 02:46:46;;;;;;;20.42;3.47;;;;;;;7.88;100.00;102082.81;5055472;28;20450;-84
2024/02/21 02:49:11;;;;;;;20.27;3.63;;;;;;;7.88;100.00;102086.34;5055384;28;20036;-83
2024/02/21 02:51:36;;;;;;;18.73;5.05;;;;;;;7.83;100.00;102076.94;5055311;28;20029;-83
2024/02/21 02:54:03;;;;;;;24.90;4.72;;;;;;;7.82;100.00;102077.88;5054549;28;20041;-83
2024/02/21 02:56:28;;;;;;;19.00;4.50;;;;;;;7.77;100.00;102065.75;5055473;28;20032;-83
2024/02/21 02:58:53;;;;;;;22.60;4.18;;;;;;;7.77;100.00;102063.09;5055362;28;20044;-83
2024/02/21 03:01:19;;;;;;;22.70;4.15;;;;;;;7.75;100.00;102059.69;5055406;28;20033;-83
2024/02/21 03:03:47;;;;;;;19.52;3.50;;;;;;;7.71;100.00;102054.66;5055488;28;20547;-84
2024/02/21 03:06:12;;;;;;;28.55;5.20;;;;;;;7.70;100.00;102056.47;5054020;28;20053;-84
2024/02/21 03:08:38;;;;;;;20.60;3.42;;;;;;;7.72;100.00;102043.97;5055312;28;20064;-83
2024/02/21 03:11:03;;;;;;;14.70;3.40;;;;;;;7.70;100.00;102051.19;5055718;28;20033;-83
2024/02/21 03:13:28;;;;;;;20.80;4.80;;;;;;;7.71;100.00;102038.78;5054017;28;20573;-82
2024/02/21 03:15:54;;;;;;;20.23;4.50;;;;;;;7.69;100.00;102041.50;5053798;28;20437;-84
2024/02/21 03:18:19;;;;;;;22.90;4.15;;;;;;;7.67;100.00;102032.78;5055307;28;20025;-83
2024/02/21 03:20:47;;;;;;;18.63;4.75;;;;;;;7.67;100.00;102018.69;5054891;28;20040;-83
2024/02/21 03:23:15;;;;;;;23.50;4.78;;;;;;;7.65;100.00;102028.53;5054875;28;20493;-82
2024/02/21 03:25:43;;;;;;;24.52;4.93;;;;;;;7.64;100.00;102024.19;5055286;28;20033;-82
2024/02/21 03:28:08;;;;;;;21.70;4.28;;;;;;;7.63;100.00;102035.72;5054748;28;20123;-82
2024/02/21 03:30:34;;;;;;;23.45;5.20;;;;;;;7.63;100.00;102019.81;5053369;28;20021;-82
2024/02/21 03:32:59;;;;;;;33.17;6.28;;;;;;;7.62;100.00;102020.78;5053284;28;20091;-83
2024/02/21 03:35:26;;;;;;;23.05;5.50;;;;;;;7.60;100.00;102010.28;5053390;28;20427;-82
2024/02/21 03:37:52;;;;;;;15.90;4.88;;;;;;;7.64;100.00;102010.94;5054929;28;20124;-82
2024/02/21 03:40:17;;;;;;;25.13;4.85;;;;;;;7.66;100.00;102014.34;5053455;28;20079;-81
2024/02/21 03:42:43;;;;;;;21.15;5.13;;;;;;;7.67;100.00;102011.59;5053881;28;20432;-81
2024/02/21 03:45:09;;;;;;;27.25;5.43;;;;;;;7.71;100.00;102012.28;5054578;28;20403;-81
2024/02/21 03:47:34;;;;;;;15.88;4.82;;;;;;;7.72;100.00;102012.19;5054900;28;20039;-82
2024/02/21 03:50:00;;;;;;;25.92;4.90;;;;;;;7.73;100.00;102005.97;5054600;28;20493;-82
2024/02/21 03:52:25;;;;;;;22.83;5.22;;;;;;;7.75;100.00;101998.75;5053911;28;20080;-83
2024/02/21 03:54:51;;;;;;;14.52;4.13;;;;;;;7.74;100.00;101989.09;5052500;28;20067;-81
2024/02/21 03:57:17;;;;;;;18.98;4.68;;;;;;;7.76;100.00;101991.66;5054119;28;20024;-82
2024/02/21 03:59:42;;;;;;;13.48;4.53;;;;;;;7.73;100.00;101989.19;5054293;28;20059;-82
2024/02/21 04:02:08;;;;;;;19.83;5.18;;;;;;;7.75;100.00;101996.09;5054267;28;20424;-82
2024/02/21 04:04:37;;;;;;;19.52;4.78;;;;;;;7.75;100.00;101995.25;5054534;28;20052;-82
2024/02/21 04:07:06;;;;;;;19.90;4.70;;;;;;;7.74;100.00;101998.84;5053729;28;20067;-83
2024/02/21 04:09:33;;;;;;;22.00;6.15;;;;;;;7.78;100.00;101997.72;5054243;28;20139;-83
2024/02/21 04:11:58;;;;;;;24.58;4.95;;;;;;;7.80;100.00;101994.97;5036000;28;20025;-81
2024/02/21 04:14:23;;;;;;;15.32;4.32;;;;;;;7.76;100.00;102000.47;5054037;28;20041;-82
2024/02/21 04:16:49;;;;;;;15.73;4.65;;;;;;;7.76;100.00;102005.78;5054062;28;20430;-81
2024/02/21 04:19:14;;;;;;;21.75;5.55;;;;;;;7.77;100.00;102003.97;5053752;28;20429;-82
2024/02/21 04:21:39;;;;;;;19.33;5.00;;;;;;;7.77;100.00;101998.66;5053751;28;20374;-82
2024/02/21 04:24:05;;;;;;;24.48;5.30;;;;;;;7.80;100.00;101997.63;5053545;28;20387;-82
2024/02/21 04:26:30;;;;;;;22.10;5.35;;;;;;;7.80;100.00;101992.34;5052502;28;20305;-82
2024/02/21 04:28:56;;;;;;;23.98;5.70;;;;;;;7.77;100.00;101991.56;5052232;28;20039;-83
2024/02/21 04:31:21;;;;;;;22.15;5.20;;;;;;;7.78;100.00;101976.53;5053686;28;20482;-82
2024/02/21 04:33:47;;;;;;;22.25;5.55;;;;;;;7.80;100.00;101976.44;5054036;28;20036;-82
2024/02/21 04:36:12;;;;;;;16.85;5.20;;;;;;;7.76;100.00;101970.44;5053365;28;20079;-82
2024/02/21 04:38:39;;;;;;;17.77;5.15;;;;;;;7.77;100.00;101964.22;5051976;28;20059;-81
2024/02/21 04:41:04;;;;;;;33.05;5.85;;;;;;;7.77;100.00;101954.47;5051973;28;20044;-82
2024/02/21 04:43:29;;;;;;;19.73;4.75;;;;;;;7.78;100.00;101963.28;5053684;28;20116;-82
2024/02/21 04:45:55;;;;;;;17.42;4.88;;;;;;;7.76;100.00;101963.38;5053044;28;20147;-82
2024/02/21 04:48:20;;;;;;;18.50;4.63;;;;;;;7.73;100.00;101960.91;5035338;28;20103;-81
2024/02/21 04:50:46;;;;;;;17.95;4.65;;;;;;;7.73;100.00;101958.25;5052755;28;20033;-82
2024/02/21 04:53:11;;;;;;;14.95;4.80;;;;;;;7.72;100.00;101958.38;5051980;28;20065;-82
2024/02/21 04:55:37;;;;;;;23.13;4.78;;;;;;;7.72;100.00;101945.97;5053328;28;20028;-82
2024/02/21 04:58:02;;;;;;;18.15;5.30;;;;;;;7.70;100.00;101939.91;5052864;28;20080;-82
2024/02/21 05:00:28;;;;;;;14.15;5.03;;;;;;;7.67;100.00;101934.78;5052093;28;20087;-82
2024/02/21 05:02:53;;;;;;;17.75;5.22;;;;;;;7.67;100.00;101931.28;5053052;28;20464;-83
2024/02/21 05:05:19;;;;;;;19.73;5.40;;;;;;;7.65;100.00;101918.13;5035954;28;20048;-82
2024/02/21 05:07:44;;;;;;;16.80;5.65;;;;;;;7.63;100.00;101912.09;5051685;28;20036;-82
2024/02/21 05:10:09;;;;;;;13.48;5.18;;;;;;;7.63;100.00;101909.44;5051396;28;20478;-83
2024/02/21 05:12:35;;;;;;;20.13;6.50;;;;;;;7.59;100.00;101906.09;5051699;28;20518;-82
2024/02/21 05:15:01;;;;;;;17.35;6.47;;;;;;;7.58;100.00;101906.19;5052826;28;20056;-84
2024/02/21 05:17:26;;;;;;;15.88;5.57;;;;;;;7.56;100.00;101914.25;5052778;28;20128;-82
2024/02/21 05:19:54;;;;;;;17.67;5.75;;;;;;;7.55;100.00;101906.38;5052497;28;20083;-83
2024/02/21 05:22:19;;;;;;;16.58;6.32;;;;;;;7.53;100.00;101895.06;5051510;28;20398;-82
2024/02/21 05:24:47;;;;;;;16.58;6.43;;;;;;;7.51;100.00;101895.13;5052505;28;20029;-84
2024/02/21 05:27:13;;;;;;;29.20;6.78;;;;;;;7.52;100.00;101888.88;5052074;28;20516;-82
2024/02/21 05:29:38;;;;;;;13.88;6.10;;;;;;;7.52;100.00;101880.09;5051034;28;20120;-82
2024/02/21 05:32:03;;;;;;;14.82;6.18;;;;;;;7.47;100.00;101880.38;5052474;28;20521;-87
2024/02/21 05:34:29;;;;;;;15.18;6.35;;;;;;;7.47;100.00;101879.53;5051143;28;20062;-83
2024/02/21 05:36:54;;;;;;;9.90;6.15;;;;;;;7.46;100.00;101883.13;5052129;28;20068;-84
2024/02/21 05:39:22;;;;;;;16.55;6.57;;;;;;;7.40;100.00;101874.63;5050933;28;20359;-82
2024/02/21 05:41:48;;;;;;;14.95;6.43;;;;;;;7.41;100.00;101871.00;5052228;28;20135;-82
2024/02/21 05:44:13;;;;;;;13.63;5.85;;;;;;;7.42;100.00;101866.56;5051973;28;20063;-82
2024/02/21 05:46:38;;;;;;;16.40;7.13;;;;;;;7.39;100.00;101864.13;5034337;28;20060;-81
2024/02/21 05:49:04;;;;;;;15.57;6.65;;;;;;;7.38;100.00;101860.59;5051859;28;20024;-81
2024/02/21 05:51:33;;;;;;;15.13;6.07;;;;;;;7.38;100.00;101849.16;5052020;28;20443;-81
2024/02/21 05:53:59;;;;;;;11.45;6.32;;;;;;;7.37;100.00;101852.75;5052140;28;20166;-82
2024/02/21 05:56:24;;;;;;;12.20;6.70;;;;;;;7.38;100.00;101846.53;5052203;28;20423;-81
2024/02/21 05:58:50;;;;;;;11.75;6.60;;;;;;;7.39;100.00;101842.94;5051855;28;20032;-81
2024/02/21 06:01:15;;;;;;;20.65;7.30;;;;;;;7.39;100.00;101837.63;5050949;28;20033;-82
2024/02/21 06:03:41;;;;;;;21.80;6.82;;;;;;;7.37;100.00;101836.88;5052052;28;20029;-81
2024/02/21 06:06:06;;;;;;;16.42;6.82;;;;;;;7.39;100.00;101838.47;5052264;28;20037;-81
2024/02/21 06:08:32;;;;;;;13.73;6.97;;;;;;;7.39;100.00;101842.94;5051914;28;20032;-81
2024/02/21 06:10:57;;;;;;;14.02;7.28;;;;;;;7.38;100.00;101847.34;5050545;28;20497;-84
2024/02/21 06:13:26;;;;;;;17.33;8.48;;;;;;;7.38;100.00;101843.88;5033508;28;20109;-81
2024/02/21 06:15:51;;;;;;;18.73;7.50;;;;;;;7.36;100.00;101838.66;5050900;28;20064;-81
2024/02/21 06:18:17;;;;;;;13.23;7.68;;;;;;;7.36;100.00;101841.31;5058116;28;20413;-82
2024/02/21 06:20:43;;;;;;;14.82;7.70;;;;;;;7.37;100.00;101850.94;5058427;28;20044;-82
2024/02/21 06:23:08;;;;;;;15.27;8.10;;;;;;;7.35;100.00;101855.50;5058288;28;20069;-81
2024/02/21 06:25:34;;;;;;;17.90;9.07;;;;;;;7.33;100.00;101860.03;5058244;28;20032;-80
2024/02/21 06:27:59;;;;;;;17.50;8.68;;;;;;;7.35;100.00;101850.19;5058426;28;20029;-81
2024/02/21 06:30:28;;;;;;;15.68;8.43;;;;;;;7.34;100.00;101853.78;5058366;28;20379;-81
2024/02/21 06:32:55;;;;;;;15.38;8.73;;;;;;;7.32;100.00;101846.91;5058245;28;20029;-83
2024/02/21 06:35:21;;;;;;;20.20;9.20;;;;;;;7.33;100.00;101848.56;5057780;28;20033;-83
2024/02/21 06:37:50;;;;;;;20.10;9.15;;;;;;;7.31;100.00;101835.44;5058516;28;20435;-83
2024/02/21 06:40:16;;;;;;;19.77;9.43;;;;;;;7.29;100.00;101837.34;5024934;28;20029;-82
2024/02/21 06:42:41;;;;;;;20.73;10.27;;;;;;;7.29;100.00;101837.34;5056770;28;20082;-82
2024/02/21 06:45:07;;;;;;;20.70;9.02;;;;;;;7.31;100.00;101837.25;5058181;28;20075;-83
2024/02/21 06:47:32;;;;;;;19.40;9.93;;;;;;;7.29;100.00;101826.75;5058298;28;20033;-82
2024/02/21 06:49:58;;;;;;;18.45;10.05;;;;;;;7.27;100.00;101817.19;5040419;28;20037;-86
2024/02/21 06:52:24;;;;;;;18.58;10.18;;;;;;;7.28;100.00;101818.91;5056429;28;20069;-83
2024/02/21 06:54:50;;;;;;;18.45;10.55;;;;;;;7.26;100.00;101813.69;5058584;28;20025;-82
2024/02/21 06:57:15;;;;;;;25.73;10.45;;;;;;;7.27;100.00;101812.75;5057735;28;20037;-84
2024/02/21 06:59:41;;;;;;;23.30;10.07;;;;;;;7.27;100.00;101809.25;5023907;28;20040;-82
2024/02/21 07:02:07;;;;;;;19.83;9.85;;;;;;;7.25;100.00;101809.34;5058041;28;20132;-84
2024/02/21 07:04:33;;;;;;;18.58;9.95;;;;;;;7.25;100.00;101804.03;5056845;28;20065;-82
2024/02/21 07:06:58;;;;;;;19.48;10.43;;;;;;;7.23;100.00;101795.34;5058644;28;20036;-83
2024/02/21 07:09:23;;;;;;;20.52;10.10;;;;;;;7.25;100.00;101796.09;5058426;28;20210;-83
2024/02/21 07:11:49;;;;;;;17.67;10.68;;;;;;;7.26;100.00;101791.69;5058576;28;20033;-81
2024/02/21 07:14:15;;;;;;;25.40;10.60;;;;;;;7.27;100.00;101791.59;5056832;28;20467;-81
2024/02/21 07:16:41;;;;;;;20.10;10.38;;;;;;;7.26;100.00;101783.75;5057939;28;20037;-80
2024/02/21 07:19:06;;;;;;;20.17;10.18;;;;;;;7.24;100.00;101765.31;5056539;28;20060;-84
2024/02/21 07:21:32;;;;;;;23.73;10.30;;;;;;;7.24;100.00;101782.03;5057988;28;20025;-88
2024/02/21 07:23:58;;;;;;;24.60;10.80;;;;;;;7.28;100.00;101765.97;5056616;28;20033;-82
2024/02/21 07:26:23;;;;;;;19.85;9.93;;;;;;;7.28;100.00;101764.16;5057644;28;20412;-80
2024/02/21 07:28:48;;;;;;;21.23;10.38;;;;;;;7.29;100.00;101762.38;5054212;28;20041;-85
2024/02/21 07:31:14;;;;;;;28.30;10.73;;;;;;;7.30;100.00;101756.97;5054127;28;20048;-81
2024/02/21 07:33:39;;;;;;;23.88;10.50;;;;;;;7.32;100.00;101759.53;5036976;28;20037;-82
2024/02/21 07:36:10;;;;;;;21.55;10.48;;;;;;;7.35;100.00;101751.41;5054782;28;20082;-83
2024/02/21 07:38:37;;;;;;;22.33;10.85;;;;;;;7.37;100.00;101760.91;5052873;28;20072;-80
2024/02/21 07:41:03;;;;;;;23.52;10.73;;;;;;;7.37;100.00;101754.78;5053484;28;20183;-77
2024/02/21 07:43:29;;;;;;;25.58;9.90;;;;;;;7.43;100.00;101750.91;5052669;28;20063;-77
2024/02/21 07:45:55;;;;;;;25.25;11.13;;;;;;;7.43;100.00;101729.72;5052666;28;20065;-77
2024/02/21 07:48:24;;;;;;;24.55;11.80;;;;;;;7.44;100.00;101734.09;5052887;28;20037;-80
2024/02/21 07:50:49;;;;;;;26.85;11.50;;;;;;;7.44;100.00;101728.78;5053577;28;20029;-76
2024/02/21 07:53:17;;;;;;;24.55;11.10;;;;;;;7.44;100.00;101726.97;5053664;28;20052;-76
2024/02/21 07:55:43;;;;;;;21.75;10.70;;;;;;;7.44;100.00;101732.28;5053686;28;20369;-78
2024/02/21 07:58:08;;;;;;;21.60;10.88;;;;;;;7.47;100.00;101723.31;5054246;28;20037;-76
2024/02/21 08:00:33;;;;;;;20.83;10.30;;;;;;;7.47;100.00;101720.66;5052738;28;20044;-79
2024/02/21 08:02:59;;;;;;;25.77;11.15;;;;;;;7.47;100.00;101723.31;5035831;28;20033;-79
2024/02/21 08:05:24;;;;;;;22.02;10.52;;;;;;;7.47;100.00;101710.91;5053684;28;20062;-79
2024/02/21 08:07:50;;;;;;;17.65;10.07;;;;;;;7.50;100.00;101713.34;5053605;28;20033;-79
2024/02/21 08:10:15;;;;;;;23.52;10.70;;;;;;;7.50;100.00;101708.06;5054077;28;20037;-77
2024/02/21 08:12:41;;;;;;;27.48;10.68;;;;;;;7.53;100.00;101709.66;5053315;28;20036;-77
2024/02/21 08:15:10;;;;;;;26.27;10.85;;;;;;;7.53;100.00;101696.41;5053259;28;20044;-80
2024/02/21 08:17:36;;;;;;;20.38;10.32;;;;;;;7.56;100.00;101698.88;5052022;28;20161;-81
2024/02/21 08:20:02;;;;;;;20.13;10.30;;;;;;;7.57;100.00;101693.47;5035816;28;20421;-78
2024/02/21 08:22:28;;;;;;;17.13;9.25;;;;;;;7.61;100.00;101685.34;5052216;28;20116;-82
2024/02/21 08:24:53;;;;;;;21.42;10.25;;;;;;;7.61;100.00;101686.16;5051990;28;20075;-82
2024/02/21 08:27:19;;;;;;;20.08;10.23;;;;;;;7.66;100.00;101681.44;5053472;28;20037;-79
2024/02/21 08:29:44;;;;;;;21.13;10.63;;;;;;;7.67;100.00;101672.53;5053097;28;20048;-79
2024/02/21 08:32:09;;;;;;;17.00;10.35;;;;;;;7.69;100.00;101667.16;5052594;28;20382;-82
2024/02/21 08:34:35;;;;;;;21.88;10.30;;;;;;;7.71;100.00;101662.59;5051379;28;20044;-80
2024/02/21 08:37:00;;;;;;;19.58;11.02;;;;;;;7.67;100.00;101674.34;5052459;28;20028;-82
2024/02/21 08:39:28;;;;;;;22.15;11.52;;;;;;;7.65;100.00;101669.13;5053335;28;20060;-82
2024/02/21 08:41:53;;;;;;;23.17;12.95;;;;;;;7.66;100.00;101662.03;5052870;28;20063;-79
2024/02/21 08:44:19;;;;;;;20.17;11.85;;;;;;;7.65;100.00;101663.84;5051439;28;20028;-79
2024/02/21 08:46:44;;;;;;;24.55;12.73;;;;;;;7.66;100.00;101651.44;5051780;28;20029;-78
2024/02/21 08:49:10;;;;;;;22.85;12.02;;;;;;;7.65;100.00;101655.88;5051313;28;20029;-78
2024/02/21 08:51:35;;;;;;;21.08;12.20;;;;;;;7.68;100.00;101652.19;5052290;28;20033;-82
2024/02/21 08:54:01;;;;;;;22.60;12.02;;;;;;;7.64;100.00;101646.25;5051272;28;20024;-80
2024/02/21 08:56:27;;;;;;;21.40;11.57;;;;;;;7.69;100.00;101646.81;5052743;28;20046;-79
2024/02/21 08:58:52;;;;;;;26.25;11.18;;;;;;;7.72;100.00;101637.81;5051521;28;20375;-79
2024/02/21 09:01:17;;;;;;;20.58;10.75;;;;;;;7.70;100.00;101637.91;5052918;28;20128;-83
2024/02/21 09:03:43;;;;;;;18.30;10.35;;;;;;;7.76;100.00;101637.50;5051571;28;20124;-78
2024/02/21 09:06:10;;;;;;;22.50;10.93;;;;;;;7.80;100.00;101619.59;5052852;28;20047;-82
2024/02/21 09:08:35;;;;;;;19.63;10.75;;;;;;;7.83;100.00;101618.56;5052694;28;20040;-81
2024/02/21 09:11:01;;;;;;;27.45;11.50;;;;;;;7.81;100.00;101607.19;5052375;28;20038;-80
2024/02/21 09:13:27;;;;;;;20.02;10.40;;;;;;;7.89;100.00;101599.59;5052803;28;20060;-78
2024/02/21 09:15:52;;;;;;;19.98;10.55;;;;;;;7.90;100.00;101596.84;5052338;28;20136;-79
2024/02/21 09:18:18;;;;;;;13.35;9.98;;;;;;;7.90;100.00;101580.94;5051103;28;20079;-78
2024/02/21 09:20:43;;;;;;;17.45;10.35;;;;;;;7.93;100.00;101580.72;5052412;28;20037;-78
2024/02/21 09:23:09;;;;;;;21.85;10.00;;;;;;;7.99;100.00;101568.03;5052369;28;20412;-79
2024/02/21 09:25:34;;;;;;;17.73;9.32;;;;;;;8.07;100.00;101555.91;5052341;28;20064;-78
2024/02/21 09:28:01;;;;;;;16.80;10.13;;;;;;;8.09;100.00;101561.13;5051134;28;20071;-77
2024/02/21 09:30:26;;;;;;;18.15;10.35;;;;;;;8.12;100.00;101548.53;5052065;28;20032;-80
2024/02/21 09:32:52;;;;;;;16.95;10.25;;;;;;;8.17;100.00;101542.06;5050939;28;20032;-81
2024/02/21 09:35:18;;;;;;;25.27;10.48;;;;;;;8.17;100.00;101526.16;5034905;28;20044;-81
2024/02/21 09:37:43;;;;;;;18.67;10.35;;;;;;;8.19;100.00;101529.53;5051866;28;20119;-80
2024/02/21 09:40:09;;;;;;;16.13;10.00;;;;;;;8.20;100.00;101528.59;5051780;28;20067;-78
2024/02/21 09:42:40;;;;;;;17.23;9.95;;;;;;;8.24;100.00;101516.78;5052313;28;20045;-87
2024/02/21 09:45:13;;;;;;;14.53;10.00;;;;;;;8.24;100.00;101515.00;5052785;28;20040;-78
2024/02/21 09:48:04;;;;;;;16.92;9.50;;;;;;;8.24;100.00;101511.50;5052136;28;20366;-80
2024/02/21 09:50:32;;;;;;;16.38;9.30;;;;;;;8.24;100.00;101491.16;5052958;28;20435;-79
2024/02/21 09:53:01;;;;;;;17.85;9.90;;;;;;;8.30;100.00;101493.38;5052575;28;20029;-79
2024/02/21 09:55:28;;;;;;;15.80;9.40;;;;;;;8.35;100.00;101477.13;5051361;28;20028;-82
2024/02/21 09:57:54;;;;;;;14.00;8.77;;;;;;;8.34;100.00;101477.25;5051312;28;20040;-77
2024/02/21 10:00:21;;;;;;;19.40;8.93;;;;;;;8.34;100.00;101480.72;5052818;28;20044;-79
2024/02/21 10:02:50;;;;;;;16.77;8.68;;;;;;;8.39;100.00;101469.78;5051138;28;20036;-78
2024/02/21 10:05:18;;;;;;;12.20;8.10;;;;;;;8.45;100.00;101462.28;5052790;28;20021;-81
2024/02/21 10:07:44;;;;;;;13.55;9.27;;;;;;;8.53;100.00;101445.81;5052516;28;20414;-82
2024/02/21 10:10:09;;;;;;;16.10;8.65;;;;;;;8.43;100.00;101450.06;5052532;28;20039;-80
2024/02/21 10:12:35;;;;;;;16.85;8.15;;;;;;;8.41;100.00;101434.25;5051842;28;20029;-80
2024/02/21 10:15:05;;;;;;;19.30;8.38;;;;;;;8.48;100.00;101432.06;5052554;28;20040;-79
2024/02/21 10:17:32;;;;;;;15.95;8.52;;;;;;;8.52;100.00;101422.91;5052036;28;20486;-79
2024/02/21 10:20:11;;;;;;;16.10;8.40;;;;;;;8.61;100.00;101421.38;5052483;28;20119;-77
2024/02/21 10:22:39;;;;;;;17.05;8.88;;;;;;;8.64;100.00;101423.81;5052475;28;20490;-78
2024/02/21 10:25:12;;;;;;;16.15;8.60;;;;;;;8.68;100.00;101419.16;5051093;28;20098;-78
2024/02/21 10:27:38;;;;;;;14.68;9.35;;;;;;;8.60;100.00;101425.84;5052515;28;20033;-80
2024/02/21 10:30:14;;;;;;;15.32;9.75;;;;;;;8.60;100.00;101423.19;5052354;28;20037;-81
2024/02/21 10:32:56;;;;;;;15.68;9.27;;;;;;;8.60;100.00;101433.81;5052515;28;20072;-81
2024/02/21 10:35:29;;;;;;;18.50;9.90;;;;;;;8.54;100.00;101428.09;5052135;28;20040;-83
2024/02/21 10:37:56;;;;;;;14.18;9.43;;;;;;;8.45;100.00;101426.97;5052092;28;20120;-81
2024/02/21 10:40:26;;;;;;;17.30;10.35;;;;;;;8.33;100.00;101427.81;5052178;28;20036;-79
2024/02/21 10:42:57;;;;;;;18.23;10.50;;;;;;;8.33;100.00;101427.81;5051799;28;20455;-85
2024/02/21 10:45:31;;;;;;;14.38;10.30;;;;;;;8.25;100.00;101423.91;5051264;28;20540;-83
2024/02/21 10:48:11;;;;;;;16.38;10.20;;;;;;;8.22;100.00;101417.97;5051683;28;20029;-88
2024/02/21 10:50:53;;;;;;;17.38;10.50;;;;;;;8.21;100.00;101405.66;5051045;28;20029;-82
2024/02/21 10:53:50;;;;;;;15.50;9.50;;;;;;;8.15;100.00;101401.69;5051366;28;20028;-80
2024/02/21 10:56:31;;;;;;;18.00;10.63;;;;;;;8.18;100.00;101396.16;5033890;28;20040;-77
2024/02/21 10:59:07;;;;;;;14.60;10.23;;;;;;;8.23;100.00;101393.16;5051159;28;20101;-79
2024/02/21 11:01:32;;;;;;;19.52;10.40;;;;;;;8.24;100.00;101387.75;5052387;28;20036;-80
2024/02/21 11:04:01;;;;;;;18.02;10.55;;;;;;;8.32;100.00;101379.25;5053122;28;20048;-80
2024/02/21 11:06:29;;;;;;;13.95;10.80;;;;;;;8.35;100.00;101365.75;5054675;28;20083;-78
2024/02/21 11:09:10;;;;;;;17.35;10.20;;;;;;;8.36;100.00;101366.59;5055133;28;20095;-79
2024/02/21 11:11:38;;;;;;;12.35;9.27;;;;;;;8.49;100.00;101346.22;5054727;28;20113;-79